Time;durP1;ratioP1;P1;durP2;ratioP2;P2;SDS_P1;SDS_P2;PMS_P1;PMS_P2;Temp;Humidity;BMP_temperature;BMP_pressure;BME280_temperature;BME280_humidity;BME280_pressure;Samples;Min_cycle;Max_cycle;Signal;HPM_P1;HPM_P2
2022/07/17 00:00:46;;;;;;;2.83;1.70;;;;;;;34.01;34.74;99480.72;5080101;28;20066;-85
2022/07/17 00:03:14;;;;;;;2.50;1.70;;;;;;;34.00;34.56;99478.19;5097981;28;20457;-84
2022/07/17 00:05:40;;;;;;;2.78;1.90;;;;;;;33.97;34.66;99473.97;5098071;28;20334;-85
2022/07/17 00:08:07;;;;;;;2.40;1.65;;;;;;;33.97;34.59;99478.53;5098047;28;20115;-85
2022/07/17 00:10:38;;;;;;;2.90;1.65;;;;;;;33.96;34.76;99483.09;5079821;28;20096;-84
2022/07/17 00:13:04;;;;;;;2.55;1.90;;;;;;;33.95;34.57;99473.31;5079531;28;20028;-84
2022/07/17 00:15:30;;;;;;;2.75;1.98;;;;;;;33.93;34.61;99475.34;5079960;28;20024;-87
2022/07/17 00:17:56;;;;;;;2.20;1.50;;;;;;;33.92;34.78;99480.91;5080250;28;20124;-87
2022/07/17 00:20:26;;;;;;;3.22;2.00;;;;;;;33.90;34.53;99478.41;5080098;28;20116;-84
2022/07/17 00:22:54;;;;;;;2.05;1.40;;;;;;;33.88;34.58;99475.03;5079988;28;20177;-85
2022/07/17 00:25:20;;;;;;;2.10;1.40;;;;;;;33.86;34.59;99472.53;5080110;28;20034;-87
2022/07/17 00:27:45;;;;;;;2.42;1.60;;;;;;;33.87;34.72;99470.63;5080410;28;20457;-87
2022/07/17 00:30:12;;;;;;;2.88;1.70;;;;;;;33.86;34.88;99471.66;5105116;28;20062;-87
2022/07/17 00:32:38;;;;;;;2.13;1.40;;;;;;;33.86;34.81;99471.66;5101800;28;20020;-89
2022/07/17 00:35:04;;;;;;;3.63;1.88;;;;;;;33.84;34.66;99474.53;5086784;28;20453;-87
2022/07/17 00:37:29;;;;;;;2.50;1.60;;;;;;;33.83;34.89;99466.59;5100931;28;20024;-84
2022/07/17 00:39:55;;;;;;;2.28;1.60;;;;;;;33.81;34.84;99464.09;5097236;28;20028;-86
2022/07/17 00:42:21;;;;;;;3.47;1.95;;;;;;;33.81;35.11;99464.09;5096998;28;20556;-83
2022/07/17 00:44:47;;;;;;;2.20;1.50;;;;;;;33.79;34.69;99459.88;5079308;28;20039;-84
2022/07/17 00:47:20;;;;;;;2.65;1.48;;;;;;;33.78;35.30;99461.72;5079098;28;20032;-85
2022/07/17 00:49:47;;;;;;;3.55;1.60;;;;;;;33.78;35.33;99458.19;5096262;28;20107;-85
2022/07/17 00:52:15;;;;;;;2.08;1.65;;;;;;;33.75;35.04;99460.22;5097018;28;20425;-86
2022/07/17 00:54:42;;;;;;;2.35;1.80;;;;;;;33.74;35.04;99458.53;5079676;28;20046;-85
2022/07/17 00:57:11;;;;;;;2.50;1.60;;;;;;;33.73;35.10;99454.16;5079020;28;20143;-86
2022/07/17 00:59:39;;;;;;;2.95;1.67;;;;;;;33.73;35.24;99456.00;5079051;28;20446;-83
2022/07/17 01:02:06;;;;;;;2.60;1.50;;;;;;;33.73;34.99;99464.13;5079108;28;20028;-86
2022/07/17 01:04:33;;;;;;;2.30;1.50;;;;;;;33.71;35.13;99458.88;5096867;28;20027;-86
2022/07/17 01:07:00;;;;;;;2.65;1.85;;;;;;;33.71;34.94;99460.78;5079021;28;20073;-87
2022/07/17 01:09:27;;;;;;;2.72;1.73;;;;;;;33.69;35.03;99462.81;5079182;28;20035;-85
2022/07/17 01:11:53;;;;;;;2.53;1.70;;;;;;;33.66;34.85;99455.91;5079397;28;20024;-87
2022/07/17 01:14:19;;;;;;;2.45;1.60;;;;;;;33.66;34.95;99457.75;5096967;28;20020;-85
2022/07/17 01:16:44;;;;;;;2.67;1.73;;;;;;;33.65;35.25;99465.00;5101839;28;20331;-85
2022/07/17 01:19:11;;;;;;;2.05;1.50;;;;;;;33.65;35.19;99469.59;5101719;28;20038;-87
2022/07/17 01:21:41;;;;;;;2.83;1.90;;;;;;;33.63;34.88;99472.47;5099621;28;20024;-89
2022/07/17 01:24:07;;;;;;;2.63;1.50;;;;;;;33.61;34.90;99479.94;5099712;28;20353;-86
2022/07/17 01:26:32;;;;;;;3.20;1.90;;;;;;;33.60;35.01;99472.84;5081835;28;20028;-87
2022/07/17 01:28:58;;;;;;;2.78;1.88;;;;;;;33.58;34.84;99474.88;5082744;28;20453;-89
2022/07/17 01:31:23;;;;;;;2.28;1.75;;;;;;;33.56;34.76;99476.91;5082971;28;20024;-86
2022/07/17 01:33:49;;;;;;;1.92;1.42;;;;;;;33.54;34.92;99478.97;5079687;28;20449;-86
2022/07/17 01:36:15;;;;;;;2.53;1.65;;;;;;;33.51;34.75;99477.47;5078785;28;20433;-85
2022/07/17 01:38:40;;;;;;;2.67;1.67;;;;;;;33.48;35.08;99485.88;5078379;28;20526;-86
2022/07/17 01:41:06;;;;;;;2.13;1.70;;;;;;;33.48;35.01;99486.72;5095925;28;20020;-85
2022/07/17 01:43:32;;;;;;;2.97;1.50;;;;;;;33.48;34.99;99483.16;5097387;28;20369;-85
2022/07/17 01:45:57;;;;;;;2.50;1.65;;;;;;;33.45;35.22;99473.53;5078209;28;20020;-86
2022/07/17 01:48:29;;;;;;;2.83;1.65;;;;;;;33.46;35.14;99475.22;5078160;28;20114;-84
2022/07/17 01:50:55;;;;;;;2.33;1.75;;;;;;;33.45;35.12;99478.13;5078216;28;20097;-86
2022/07/17 01:53:20;;;;;;;2.53;1.73;;;;;;;33.42;35.30;99471.22;5078490;28;20453;-87
2022/07/17 01:55:47;;;;;;;3.33;1.80;;;;;;;33.43;35.29;99478.31;5112431;28;20119;-84
2022/07/17 01:58:14;;;;;;;2.50;1.50;;;;;;;33.42;35.30;99481.16;5077935;28;20051;-87
2022/07/17 02:00:40;;;;;;;2.53;1.80;;;;;;;33.42;35.21;99479.31;5096041;28;20034;-86
2022/07/17 02:03:06;;;;;;;2.55;1.42;;;;;;;33.39;35.10;99474.25;5082263;28;20027;-85
2022/07/17 02:05:31;;;;;;;2.70;1.88;;;;;;;33.40;35.48;99467.00;5102123;28;20024;-86
2022/07/17 02:07:57;;;;;;;2.03;1.50;;;;;;;33.41;35.46;99474.09;5080788;28;20024;-85
2022/07/17 02:10:23;;;;;;;2.17;1.50;;;;;;;33.40;35.38;99473.22;5077904;28;20056;-85
2022/07/17 02:12:48;;;;;;;2.10;1.50;;;;;;;33.38;35.17;99475.28;5095689;28;20062;-86
2022/07/17 02:15:14;;;;;;;2.45;1.67;;;;;;;33.35;35.22;99475.63;5077573;28;20024;-84
2022/07/17 02:17:41;;;;;;;2.30;1.63;;;;;;;33.33;35.53;99470.41;5096963;28;20040;-84
2022/07/17 02:20:08;;;;;;;2.67;1.58;;;;;;;33.33;35.16;99466.84;5077622;28;20467;-85
2022/07/17 02:22:34;;;;;;;2.95;1.60;;;;;;;33.32;35.47;99466.00;5077425;28;20457;-85
2022/07/17 02:25:00;;;;;;;2.10;1.60;;;;;;;33.30;35.19;99462.63;5111458;28;20108;-86
2022/07/17 02:27:26;;;;;;;2.63;1.90;;;;;;;33.31;35.31;99471.59;5077610;28;20024;-84
2022/07/17 02:29:51;;;;;;;3.60;1.85;;;;;;;33.30;35.31;99464.47;5077496;28;20093;-85
2022/07/17 02:32:17;;;;;;;2.90;1.85;;;;;;;33.28;35.46;99471.94;5095368;28;20028;-84
2022/07/17 02:34:42;;;;;;;2.47;1.42;;;;;;;33.26;35.09;99465.88;5111522;28;20123;-85
2022/07/17 02:37:08;;;;;;;3.85;1.58;;;;;;;33.26;35.44;99466.69;5095759;28;20472;-85
2022/07/17 02:39:34;;;;;;;2.55;1.85;;;;;;;33.22;35.29;99460.78;5095097;28;20342;-87
2022/07/17 02:41:59;;;;;;;2.60;1.55;;;;;;;33.22;35.42;99460.78;5077379;28;20047;-84
2022/07/17 02:44:25;;;;;;;2.97;2.00;;;;;;;33.21;35.06;99459.13;5094891;28;20047;-86
2022/07/17 02:46:50;;;;;;;2.78;1.75;;;;;;;33.19;35.30;99450.34;5077328;28;20031;-84
2022/07/17 02:49:16;;;;;;;3.17;1.90;;;;;;;33.19;35.35;99453.06;5077817;28;20020;-84
2022/07/17 02:51:41;;;;;;;3.10;1.60;;;;;;;33.17;35.21;99454.25;5101840;28;20035;-84
2022/07/17 02:54:07;;;;;;;3.03;1.98;;;;;;;33.16;35.36;99450.69;5084569;28;20016;-86
2022/07/17 02:56:32;;;;;;;3.22;1.80;;;;;;;33.17;35.36;99457.78;5115879;28;20028;-86
2022/07/17 02:58:58;;;;;;;2.60;1.60;;;;;;;33.16;35.56;99453.38;5077424;28;20039;-84
2022/07/17 03:01:23;;;;;;;2.92;1.98;;;;;;;33.14;35.47;99452.72;5077169;28;20023;-84
2022/07/17 03:03:49;;;;;;;2.78;1.77;;;;;;;33.13;35.36;99459.16;5077302;28;20024;-88
2022/07/17 03:06:15;;;;;;;2.80;1.88;;;;;;;33.12;35.32;99452.03;5110796;28;20028;-86
2022/07/17 03:08:40;;;;;;;2.40;1.70;;;;;;;33.11;35.41;99458.47;5077299;28;20031;-87
2022/07/17 03:11:06;;;;;;;1.90;1.50;;;;;;;33.08;35.33;99450.72;5110945;28;20077;-84
2022/07/17 03:13:32;;;;;;;2.53;1.80;;;;;;;33.08;35.48;99453.44;5098864;28;20024;-85
2022/07/17 03:15:57;;;;;;;3.65;1.92;;;;;;;33.07;35.25;99451.75;5098887;28;20032;-84
2022/07/17 03:18:23;;;;;;;2.85;1.90;;;;;;;33.07;35.44;99452.56;5114913;28;20028;-85
2022/07/17 03:20:48;;;;;;;3.35;2.10;;;;;;;33.07;35.45;99451.75;5081064;28;20028;-84
2022/07/17 03:23:14;;;;;;;2.70;1.85;;;;;;;33.06;35.55;99448.19;5115439;28;20024;-84
2022/07/17 03:25:40;;;;;;;2.67;1.83;;;;;;;33.03;35.49;99448.53;5100737;28;20024;-86
2022/07/17 03:28:05;;;;;;;2.72;1.90;;;;;;;33.03;35.56;99442.28;5100907;28;20038;-87
2022/07/17 03:30:31;;;;;;;2.63;1.75;;;;;;;33.01;35.47;99452.44;5117915;28;20502;-86
2022/07/17 03:32:56;;;;;;;3.05;1.80;;;;;;;33.00;35.47;99450.72;5103658;28;20411;-87
2022/07/17 03:35:22;;;;;;;2.78;1.90;;;;;;;32.99;35.57;99449.06;5123805;28;20020;-87
2022/07/17 03:37:47;;;;;;;2.45;1.63;;;;;;;32.98;35.29;99450.06;5089345;28;20028;-85
2022/07/17 03:40:14;;;;;;;3.25;1.77;;;;;;;32.98;35.52;99452.78;5087959;28;20548;-84
2022/07/17 03:42:39;;;;;;;3.83;2.10;;;;;;;32.96;35.45;99461.06;5119056;28;20477;-86
2022/07/17 03:45:06;;;;;;;2.88;2.00;;;;;;;32.94;35.55;99457.66;5085053;28;20024;-84
2022/07/17 03:47:32;;;;;;;2.55;1.75;;;;;;;32.92;35.45;99465.94;5080845;28;20038;-84
2022/07/17 03:49:57;;;;;;;2.47;1.80;;;;;;;32.89;35.39;99466.28;5098466;28;20362;-85
2022/07/17 03:52:23;;;;;;;3.42;1.95;;;;;;;32.88;35.45;99463.75;5098327;28;20028;-85
2022/07/17 03:54:48;;;;;;;2.40;1.60;;;;;;;32.86;35.50;99461.22;5114360;28;20028;-85
2022/07/17 03:57:18;;;;;;;2.83;2.08;;;;;;;32.86;35.40;99465.78;5098576;28;20047;-84
2022/07/17 03:59:43;;;;;;;3.28;1.80;;;;;;;32.81;35.31;99464.44;5081686;28;20361;-85
2022/07/17 04:02:30;;;;;;;2.92;1.90;;;;;;;32.81;35.45;99463.59;5097927;28;20030;-83
2022/07/17 04:04:56;;;;;;;3.15;2.08;;;;;;;32.79;35.47;99460.22;5080112;28;20444;-85
2022/07/17 04:07:27;;;;;;;4.57;1.92;;;;;;;32.77;35.24;99460.41;5097936;28;20119;-84
2022/07/17 04:09:58;;;;;;;2.67;1.90;;;;;;;32.75;35.31;99459.72;5113700;28;20436;-84
2022/07/17 04:12:24;;;;;;;3.55;1.98;;;;;;;32.75;35.49;99464.28;5079756;28;20369;-86
2022/07/17 04:14:50;;;;;;;2.95;2.00;;;;;;;32.73;35.32;99467.16;5080048;28;20030;-86
2022/07/17 04:17:15;;;;;;;3.67;2.17;;;;;;;32.71;35.38;99457.53;5079912;28;20055;-83
2022/07/17 04:19:41;;;;;;;3.47;2.08;;;;;;;32.68;35.27;99459.56;5080122;28;20107;-85
2022/07/17 04:22:06;;;;;;;3.08;1.80;;;;;;;32.68;35.51;99454.16;5079921;28;20031;-86
2022/07/17 04:24:32;;;;;;;2.67;1.77;;;;;;;32.68;35.61;99447.94;5081977;28;20035;-85
2022/07/17 04:26:57;;;;;;;3.72;2.25;;;;;;;32.66;35.62;99448.09;5105479;28;20028;-84
2022/07/17 04:29:23;;;;;;;2.72;1.92;;;;;;;32.66;35.71;99453.50;5104117;28;20104;-84
2022/07/17 04:31:49;;;;;;;3.85;2.00;;;;;;;32.66;35.80;99449.94;5080428;28;20065;-85
2022/07/17 04:34:14;;;;;;;3.08;1.90;;;;;;;32.64;35.82;99452.81;5080171;28;20028;-85
2022/07/17 04:36:40;;;;;;;3.40;2.10;;;;;;;32.65;35.45;99459.06;5079779;28;20104;-84
2022/07/17 04:39:06;;;;;;;2.80;1.85;;;;;;;32.64;35.65;99457.38;5080445;28;20037;-84
2022/07/17 04:41:31;;;;;;;3.05;1.95;;;;;;;32.62;35.67;99464.81;5097217;28;20059;-83
2022/07/17 04:43:57;;;;;;;3.25;2.30;;;;;;;32.62;35.71;99462.97;5112936;28;20057;-84
2022/07/17 04:46:22;;;;;;;2.70;2.03;;;;;;;32.61;35.77;99457.72;5097324;28;20093;-85
2022/07/17 04:48:47;;;;;;;3.55;2.15;;;;;;;32.59;35.87;99460.63;5113363;28;20028;-84
2022/07/17 04:51:13;;;;;;;3.67;2.13;;;;;;;32.60;35.62;99466.84;5079340;28;20031;-85
2022/07/17 04:53:39;;;;;;;3.45;2.10;;;;;;;32.59;35.62;99468.72;5079439;28;20128;-85
2022/07/17 04:56:04;;;;;;;2.65;1.90;;;;;;;32.59;35.60;99468.72;5113001;28;20042;-86
2022/07/17 04:58:30;;;;;;;2.65;1.95;;;;;;;32.57;35.77;99470.72;5097011;28;20028;-85
2022/07/17 05:00:55;;;;;;;3.45;2.25;;;;;;;32.57;35.69;99473.44;5079431;28;20043;-86
2022/07/17 05:03:21;;;;;;;2.90;1.98;;;;;;;32.54;35.53;99468.38;5078874;28;20032;-85
2022/07/17 05:05:46;;;;;;;2.45;1.77;;;;;;;32.55;35.68;99475.47;5078877;28;20024;-85
2022/07/17 05:08:12;;;;;;;3.33;1.88;;;;;;;32.53;35.42;99466.66;5078935;28;20024;-84
2022/07/17 05:10:38;;;;;;;4.50;2.10;;;;;;;32.52;35.75;99473.09;5079058;28;20024;-85
2022/07/17 05:13:03;;;;;;;3.00;2.05;;;;;;;32.50;35.58;99467.88;5084411;28;20441;-83
2022/07/17 05:15:29;;;;;;;2.88;2.00;;;;;;;32.49;35.63;99468.03;5085602;28;20039;-84
2022/07/17 05:17:54;;;;;;;3.67;2.10;;;;;;;32.48;35.59;99474.47;5100240;28;20192;-86
2022/07/17 05:20:20;;;;;;;2.65;1.92;;;;;;;32.46;35.54;99476.47;5081846;28;20073;-83
2022/07/17 05:22:45;;;;;;;3.20;2.15;;;;;;;32.46;35.61;99473.78;5097132;28;20349;-86
2022/07/17 05:25:11;;;;;;;3.15;2.00;;;;;;;32.45;35.53;99480.19;5096941;28;20035;-85
2022/07/17 05:27:37;;;;;;;3.53;1.90;;;;;;;32.44;35.51;99475.81;5078708;28;20023;-85
2022/07/17 05:30:03;;;;;;;3.88;2.00;;;;;;;32.42;35.78;99481.38;5097097;28;20031;-87
2022/07/17 05:32:28;;;;;;;3.05;1.90;;;;;;;32.41;35.69;99482.38;5079268;28;20027;-86
2022/07/17 05:34:54;;;;;;;3.70;2.00;;;;;;;32.40;35.72;99486.06;5113771;28;20054;-88
2022/07/17 05:37:20;;;;;;;3.35;2.17;;;;;;;32.39;35.63;99487.91;5082854;28;20102;-86
2022/07/17 05:39:45;;;;;;;4.68;2.08;;;;;;;32.38;35.65;99491.63;5102331;28;20031;-84
2022/07/17 05:42:11;;;;;;;3.22;2.00;;;;;;;32.38;35.48;99479.97;5083909;28;20139;-85
2022/07/17 05:44:36;;;;;;;3.25;2.28;;;;;;;32.38;35.63;99497.03;5079605;28;20044;-85
2022/07/17 05:47:02;;;;;;;2.80;2.22;;;;;;;32.37;35.81;99494.50;5078254;28;20362;-86
2022/07/17 05:49:27;;;;;;;3.35;2.35;;;;;;;32.36;35.57;99499.06;5096036;28;20028;-84
2022/07/17 05:51:53;;;;;;;2.45;1.75;;;;;;;32.35;35.68;99497.34;5096347;28;20107;-83
2022/07/17 05:54:18;;;;;;;2.92;2.10;;;;;;;32.33;35.90;99493.16;5078794;28;20456;-84
2022/07/17 05:56:44;;;;;;;3.05;2.00;;;;;;;32.33;35.61;99499.38;5078031;28;20043;-85
2022/07/17 05:59:09;;;;;;;3.45;1.92;;;;;;;32.31;35.53;99504.13;5095973;28;20024;-84
2022/07/17 06:01:35;;;;;;;3.50;2.30;;;;;;;32.32;35.81;99503.09;5101662;28;20035;-85
2022/07/17 06:04:01;;;;;;;2.80;2.10;;;;;;;32.30;35.66;99509.69;5103350;28;20039;-84
2022/07/17 06:06:26;;;;;;;3.67;2.05;;;;;;;32.28;35.80;99504.44;5085333;28;20031;-83
2022/07/17 06:08:52;;;;;;;3.10;2.10;;;;;;;32.30;35.67;99499.75;5077821;28;20043;-85
2022/07/17 06:11:17;;;;;;;3.20;2.10;;;;;;;32.32;35.78;99503.09;5078142;28;20035;-86
2022/07/17 06:13:43;;;;;;;3.13;2.25;;;;;;;32.31;35.66;99504.13;5095765;28;20104;-86
2022/07/17 06:16:08;;;;;;;2.95;2.05;;;;;;;32.30;35.66;99510.53;5077731;28;20024;-84
2022/07/17 06:18:34;;;;;;;3.55;2.40;;;;;;;32.28;35.62;99509.84;5077512;28;20020;-84
2022/07/17 06:20:59;;;;;;;3.20;2.20;;;;;;;32.28;35.91;99515.25;5095393;28;20080;-85
2022/07/17 06:23:25;;;;;;;3.53;2.22;;;;;;;32.27;35.62;99516.25;5077514;28;20093;-85
2022/07/17 06:25:50;;;;;;;4.00;2.20;;;;;;;32.29;35.65;99516.94;5077429;28;20028;-83
2022/07/17 06:28:16;;;;;;;3.30;2.47;;;;;;;32.28;35.54;99515.25;5077507;28;20081;-84
2022/07/17 06:30:43;;;;;;;2.80;2.00;;;;;;;32.29;35.59;99514.22;5096337;28;20064;-84
2022/07/17 06:33:08;;;;;;;3.08;2.13;;;;;;;32.28;35.77;99523.34;5095187;28;20031;-85
2022/07/17 06:35:34;;;;;;;4.65;2.63;;;;;;;32.30;35.61;99520.47;5077555;28;20028;-85
2022/07/17 06:38:01;;;;;;;3.90;2.10;;;;;;;32.30;35.62;99521.34;5095200;28;20028;-86
2022/07/17 06:40:27;;;;;;;3.00;2.10;;;;;;;32.32;35.61;99523.84;5095173;28;20034;-84
2022/07/17 06:42:52;;;;;;;3.42;2.17;;;;;;;32.31;35.61;99527.56;5077088;28;20056;-85
2022/07/17 06:45:18;;;;;;;2.75;2.10;;;;;;;32.28;35.56;99517.94;5077571;28;20040;-85
2022/07/17 06:47:43;;;;;;;3.88;2.60;;;;;;;32.28;35.62;99526.03;5097682;28;20028;-84
2022/07/17 06:50:10;;;;;;;2.90;2.13;;;;;;;32.28;35.59;99518.81;5098237;28;20039;-85
2022/07/17 06:52:36;;;;;;;3.72;2.50;;;;;;;32.27;35.86;99518.97;5102075;28;20032;-86
2022/07/17 06:55:01;;;;;;;2.53;1.83;;;;;;;32.30;35.55;99526.75;5078368;28;20399;-88
2022/07/17 06:57:27;;;;;;;2.85;2.00;;;;;;;32.29;35.83;99530.41;5094769;28;20434;-84
2022/07/17 06:59:52;;;;;;;3.00;2.13;;;;;;;32.30;35.68;99525.88;5095636;28;20035;-85
2022/07/17 07:02:18;;;;;;;2.88;2.13;;;;;;;32.31;35.50;99519.47;5095052;28;20356;-86
2022/07/17 07:04:43;;;;;;;4.50;2.33;;;;;;;32.33;35.74;99526.38;5111054;28;20130;-84
2022/07/17 07:07:10;;;;;;;3.30;2.22;;;;;;;32.33;35.54;99526.38;5094855;28;20035;-84
2022/07/17 07:09:36;;;;;;;3.97;2.40;;;;;;;32.36;35.64;99527.91;5094973;28;20034;-85
2022/07/17 07:12:02;;;;;;;3.55;2.30;;;;;;;32.35;35.64;99535.16;5077005;28;20123;-84
2022/07/17 07:14:27;;;;;;;4.00;2.72;;;;;;;32.37;35.36;99533.16;5077095;28;20024;-84
2022/07/17 07:16:52;;;;;;;4.30;2.50;;;;;;;32.41;35.66;99533.69;5094634;28;20035;-85
2022/07/17 07:19:18;;;;;;;3.45;2.30;;;;;;;32.41;35.66;99539.94;5077493;28;20066;-84
2022/07/17 07:21:44;;;;;;;4.70;2.50;;;;;;;32.42;35.35;99532.66;5077146;28;20032;-84
2022/07/17 07:24:09;;;;;;;3.45;2.50;;;;;;;32.45;35.33;99534.19;5094839;28;20020;-85
2022/07/17 07:26:35;;;;;;;3.00;2.15;;;;;;;32.45;35.32;99534.19;5096827;28;20503;-88
2022/07/17 07:29:00;;;;;;;3.50;2.47;;;;;;;32.46;35.28;99541.28;5095065;28;20024;-85
2022/07/17 07:31:26;;;;;;;3.40;2.65;;;;;;;32.47;35.48;99541.13;5076806;28;20024;-85
2022/07/17 07:33:52;;;;;;;4.32;2.50;;;;;;;32.48;35.46;99539.28;5077077;28;20035;-84
2022/07/17 07:36:17;;;;;;;3.40;2.38;;;;;;;32.48;35.48;99540.09;5095653;28;20035;-85
2022/07/17 07:38:45;;;;;;;3.85;2.67;;;;;;;32.50;35.53;99537.25;5101374;28;20032;-84
2022/07/17 07:41:10;;;;;;;4.78;3.00;;;;;;;32.52;35.34;99537.91;5085512;28;20030;-88
2022/07/17 07:43:36;;;;;;;5.32;3.00;;;;;;;32.52;35.25;99546.00;5099968;28;20079;-88
2022/07/17 07:46:03;;;;;;;3.78;2.78;;;;;;;32.52;35.20;99546.84;5100334;28;20530;-87
2022/07/17 07:48:29;;;;;;;4.95;3.17;;;;;;;32.53;35.17;99543.16;5116253;28;20544;-88
2022/07/17 07:50:54;;;;;;;3.47;2.88;;;;;;;32.54;35.25;99550.22;5095579;28;20059;-85
2022/07/17 07:53:20;;;;;;;4.68;3.30;;;;;;;32.56;35.30;99547.38;5077696;28;20065;-86
2022/07/17 07:55:46;;;;;;;4.55;3.00;;;;;;;32.58;35.16;99548.03;5095121;28;20024;-86
2022/07/17 07:58:13;;;;;;;3.63;2.80;;;;;;;32.60;35.26;99554.13;5096656;28;20157;-84
2022/07/17 08:00:42;;;;;;;4.18;3.10;;;;;;;32.61;35.05;99545.00;5098222;28;20020;-83
2022/07/17 08:03:08;;;;;;;4.88;3.22;;;;;;;32.65;35.11;99551.75;5114290;28;20094;-86
2022/07/17 08:05:33;;;;;;;4.03;3.13;;;;;;;32.67;35.04;99547.03;5113996;28;20024;-84
2022/07/17 08:07:59;;;;;;;4.45;3.30;;;;;;;32.68;35.10;99543.31;5098008;28;20058;-83
2022/07/17 08:10:26;;;;;;;5.45;3.65;;;;;;;32.71;35.24;99542.13;5113917;28;20533;-84
2022/07/17 08:12:51;;;;;;;4.63;3.45;;;;;;;32.71;35.10;99538.56;5080104;28;20016;-84
2022/07/17 08:15:20;;;;;;;4.30;3.25;;;;;;;32.72;35.06;99541.09;5097886;28;20050;-84
2022/07/17 08:17:47;;;;;;;4.20;3.20;;;;;;;32.75;35.11;99539.94;5079939;28;20020;-86
2022/07/17 08:20:13;;;;;;;4.38;3.10;;;;;;;32.77;35.10;99540.63;5097759;28;20020;-83
2022/07/17 08:22:40;;;;;;;4.78;3.28;;;;;;;32.79;34.93;99546.69;5097921;28;20031;-86
2022/07/17 08:25:06;;;;;;;4.68;3.33;;;;;;;32.81;35.00;99544.66;5080353;28;20024;-85
2022/07/17 08:27:36;;;;;;;4.60;3.50;;;;;;;32.81;34.88;99539.25;5103872;28;20031;-85
2022/07/17 08:30:03;;;;;;;4.38;3.45;;;;;;;32.83;34.66;99542.63;5084539;28;20088;-84
2022/07/17 08:32:29;;;;;;;4.43;3.45;;;;;;;32.84;35.08;99541.63;5114505;28;20038;-85
2022/07/17 08:34:55;;;;;;;4.95;3.60;;;;;;;32.86;35.06;99546.81;5097760;28;20100;-83
2022/07/17 08:37:20;;;;;;;5.00;3.50;;;;;;;32.89;34.92;99552.75;5079729;28;20435;-84
2022/07/17 08:39:46;;;;;;;4.40;3.47;;;;;;;32.90;34.82;99549.03;5097909;28;20016;-84
2022/07/17 08:42:15;;;;;;;4.63;3.45;;;;;;;32.92;34.85;99546.19;5079183;28;20052;-85
2022/07/17 08:44:42;;;;;;;4.57;3.53;;;;;;;32.94;34.78;99550.38;5079746;28;20089;-87
2022/07/17 08:47:10;;;;;;;5.65;3.40;;;;;;;32.95;34.59;99552.09;5098218;28;20028;-84
2022/07/17 08:49:45;;;;;;;4.35;3.30;;;;;;;32.98;34.78;99561.75;5079234;28;20357;-84
2022/07/17 08:52:13;;;;;;;4.43;3.50;;;;;;;33.00;34.72;99550.72;5112826;28;20020;-84
2022/07/17 08:54:42;;;;;;;4.72;3.03;;;;;;;33.03;34.30;99558.50;5079406;28;20044;-85
2022/07/17 08:57:11;;;;;;;4.25;3.20;;;;;;;33.06;34.50;99559.00;5079196;28;20039;-84
2022/07/17 08:59:38;;;;;;;4.10;3.22;;;;;;;33.07;34.66;99554.47;5078950;28;20024;-85
2022/07/17 09:02:05;;;;;;;4.60;3.20;;;;;;;33.09;34.33;99555.13;5112741;28;20032;-85
2022/07/17 09:04:31;;;;;;;5.25;3.08;;;;;;;33.12;34.49;99551.22;5079273;28;20465;-84
2022/07/17 09:07:02;;;;;;;5.35;3.55;;;;;;;33.14;34.43;99560.84;5079902;28;20042;-85
2022/07/17 09:09:28;;;;;;;4.85;3.40;;;;;;;33.16;34.20;99558.81;5096432;28;20028;-84
2022/07/17 09:11:55;;;;;;;3.58;2.97;;;;;;;33.18;34.27;99562.22;5096793;28;20441;-84
2022/07/17 09:14:21;;;;;;;4.03;3.15;;;;;;;33.19;34.32;99563.91;5080008;28;20081;-84
2022/07/17 09:16:55;;;;;;;4.70;3.70;;;;;;;33.21;34.24;99567.25;5085551;28;20031;-84
2022/07/17 09:19:47;;;;;;;4.15;3.15;;;;;;;33.22;34.31;99562.72;5118665;28;20028;-86
2022/07/17 09:22:15;;;;;;;4.90;3.42;;;;;;;33.25;34.19;99565.03;5070359;28;20040;-87
2022/07/17 09:24:55;;;;;;;4.20;3.30;;;;;;;33.26;34.00;99569.44;5079113;28;20024;-86
2022/07/17 09:27:24;;;;;;;4.63;3.40;;;;;;;33.29;34.18;99568.25;5078811;28;20093;-83
2022/07/17 09:29:51;;;;;;;4.80;3.50;;;;;;;33.30;34.10;99564.53;5079064;28;20122;-85
2022/07/17 09:32:19;;;;;;;4.45;3.47;;;;;;;33.32;34.33;99563.34;5112863;28;20032;-85
2022/07/17 09:34:48;;;;;;;4.57;3.40;;;;;;;33.33;34.09;99559.63;5096760;28;20024;-88
2022/07/17 09:37:14;;;;;;;5.20;3.10;;;;;;;33.36;34.36;99561.16;5096687;28;20150;-85
2022/07/17 09:39:40;;;;;;;6.00;3.38;;;;;;;33.38;34.10;99561.81;5078820;28;20369;-86
2022/07/17 09:42:06;;;;;;;4.68;3.33;;;;;;;33.40;34.17;99554.34;5096855;28;20466;-86
2022/07/17 09:44:31;;;;;;;4.53;3.28;;;;;;;33.42;34.07;99556.91;5097456;28;20086;-86
2022/07/17 09:46:57;;;;;;;5.20;2.88;;;;;;;33.43;34.02;99554.03;5098857;28;20038;-86
2022/07/17 09:49:27;;;;;;;3.85;2.95;;;;;;;33.44;33.84;99555.72;5100672;28;20025;-86
2022/07/17 09:51:54;;;;;;;4.75;3.40;;;;;;;33.46;34.04;99563.66;5083642;28;20457;-86
2022/07/17 09:54:23;;;;;;;4.55;3.40;;;;;;;33.47;33.93;99559.91;5101692;28;20047;-87
2022/07/17 09:56:58;;;;;;;4.88;2.97;;;;;;;33.49;34.06;99563.28;5096835;28;20024;-86
2022/07/17 09:59:28;;;;;;;4.70;3.58;;;;;;;33.53;33.87;99563.81;5078153;28;20102;-87
2022/07/17 10:01:54;;;;;;;4.03;3.03;;;;;;;33.54;34.07;99560.13;5106903;28;20016;-88
2022/07/17 10:04:20;;;;;;;4.72;3.00;;;;;;;33.55;34.27;99556.38;5090585;28;20028;-86
2022/07/17 10:06:46;;;;;;;3.92;2.92;;;;;;;33.56;34.15;99558.06;5080679;28;20035;-85
2022/07/17 10:09:13;;;;;;;4.00;3.22;;;;;;;33.57;33.86;99552.50;5082218;28;20126;-86
2022/07/17 10:11:40;;;;;;;3.85;2.97;;;;;;;33.60;34.10;99559.41;5112005;28;20024;-86
2022/07/17 10:14:10;;;;;;;4.13;3.25;;;;;;;33.62;33.94;99562.78;5077869;28;20030;-85
2022/07/17 10:16:38;;;;;;;4.18;2.90;;;;;;;33.64;34.10;99559.91;5095891;28;20028;-84
2022/07/17 10:19:24;;;;;;;4.32;3.20;;;;;;;33.65;34.00;99556.16;5078029;28;20028;-83
2022/07/17 10:22:05;;;;;;;3.80;2.88;;;;;;;33.66;34.04;99553.28;5077722;28;20023;-85
2022/07/17 10:24:31;;;;;;;4.35;2.92;;;;;;;33.70;33.96;99554.59;5077391;28;20487;-85
2022/07/17 10:26:58;;;;;;;3.92;3.13;;;;;;;33.70;34.14;99557.31;5077375;28;20116;-84
2022/07/17 10:29:38;;;;;;;4.65;3.22;;;;;;;33.73;34.17;99554.28;5095376;28;20420;-84
2022/07/17 10:32:08;;;;;;;3.95;3.10;;;;;;;33.75;33.94;99546.81;5077563;28;20453;-84
2022/07/17 10:34:49;;;;;;;3.63;2.90;;;;;;;33.78;34.21;99555.63;5077189;28;20031;-85
2022/07/17 10:37:16;;;;;;;3.65;2.78;;;;;;;33.81;33.93;99555.25;5095306;28;20028;-86
2022/07/17 10:39:53;;;;;;;4.63;3.25;;;;;;;33.82;33.87;99554.22;5111385;28;20024;-87
2022/07/17 10:42:48;;;;;;;4.50;2.95;;;;;;;33.85;34.02;99556.59;5095169;28;20058;-84
2022/07/17 10:45:24;;;;;;;4.55;2.88;;;;;;;33.86;34.10;99552.84;5095180;28;20042;-85
2022/07/17 10:47:55;;;;;;;4.40;3.15;;;;;;;33.89;33.75;99552.47;5095065;28;20023;-86
2022/07/17 10:50:36;;;;;;;4.55;3.00;;;;;;;33.90;34.02;99547.94;5110814;28;20028;-85
2022/07/17 10:53:06;;;;;;;4.63;3.08;;;;;;;33.92;33.83;99557.56;5111483;28;20032;-84
2022/07/17 10:55:33;;;;;;;4.20;3.08;;;;;;;33.94;34.10;99554.69;5112032;28;20027;-85
2022/07/17 10:57:59;;;;;;;6.07;3.05;;;;;;;33.96;33.87;99547.22;5097816;28;20052;-86
2022/07/17 11:00:25;;;;;;;3.78;3.05;;;;;;;33.97;33.90;99552.47;5095825;28;20024;-86
2022/07/17 11:02:51;;;;;;;4.00;2.90;;;;;;;34.00;33.93;99549.38;5111125;28;20112;-85
2022/07/17 11:05:17;;;;;;;3.58;2.85;;;;;;;34.04;33.88;99549.03;5094976;28;20442;-86
2022/07/17 11:07:50;;;;;;;3.88;3.10;;;;;;;34.07;33.51;99554.09;5094998;28;20089;-87
2022/07/17 11:10:16;;;;;;;4.20;2.95;;;;;;;34.08;33.66;99553.13;5077010;28;20043;-86
2022/07/17 11:12:41;;;;;;;3.60;2.60;;;;;;;34.11;33.75;99547.31;5076963;28;20032;-84
2022/07/17 11:15:07;;;;;;;3.42;2.75;;;;;;;34.13;33.54;99548.00;5094783;28;20493;-84
2022/07/17 11:17:33;;;;;;;4.45;2.97;;;;;;;34.14;33.77;99549.69;5110931;28;20115;-86
2022/07/17 11:19:59;;;;;;;3.88;2.70;;;;;;;34.16;33.76;99547.63;5094823;28;20024;-86
2022/07/17 11:22:25;;;;;;;3.63;2.75;;;;;;;34.20;33.57;99554.38;5095008;28;20036;-85
2022/07/17 11:24:51;;;;;;;3.38;2.55;;;;;;;34.21;33.54;99545.22;5076933;28;20065;-87
2022/07/17 11:27:25;;;;;;;4.47;2.90;;;;;;;34.23;33.51;99545.88;5094738;28;20123;-87
2022/07/17 11:29:52;;;;;;;3.70;2.90;;;;;;;34.25;33.83;99545.72;5094977;28;20024;-85
2022/07/17 11:32:19;;;;;;;5.20;2.95;;;;;;;34.26;33.78;99542.84;5077687;28;20035;-85